Time;durP1;ratioP1;P1;durP2;ratioP2;P2;SDS_P1;SDS_P2;PMS_P1;PMS_P2;Temp;Humidity;BMP_temperature;BMP_pressure;BME280_temperature;BME280_humidity;BME280_pressure;Samples;Min_cycle;Max_cycle;Signal;HPM_P1;HPM_P2
2022/03/13 00:01:37;;;;;;;312.00;154.20;;;;;;;0.38;45.15;100055.77;106123;1274;95515;-69
2022/03/13 00:04:06;;;;;;;316.80;150.00;;;;;;;0.41;45.32;100051.70;106179;1274;107636;-70
2022/03/13 00:06:38;;;;;;;297.80;150.60;;;;;;;0.48;45.35;100055.27;106164;1274;95364;-69
2022/03/13 00:09:19;;;;;;;302.90;149.70;;;;;;;0.54;45.48;100056.40;106200;1274;97862;-70
2022/03/13 00:11:54;;;;;;;289.10;139.80;;;;;;;0.60;45.51;100056.31;106151;1274;109784;-69
2022/03/13 00:14:25;;;;;;;278.40;134.60;;;;;;;0.65;45.54;100056.92;106172;1274;95271;-66
2022/03/13 00:17:00;;;;;;;247.40;125.40;;;;;;;0.69;45.63;100054.93;106147;1274;108421;-68
2022/03/13 00:19:29;;;;;;;229.20;115.10;;;;;;;0.74;45.62;100058.00;106199;1274;97984;-65
2022/03/13 00:21:59;;;;;;;230.60;113.40;;;;;;;0.77;45.63;100053.59;106188;1273;95174;-66
2022/03/13 00:24:31;;;;;;;258.40;127.30;;;;;;;0.80;45.67;100051.63;106181;1274;111986;-68
2022/03/13 00:27:07;;;;;;;259.40;130.00;;;;;;;0.82;45.74;100048.96;106099;1274;97950;-67
2022/03/13 00:29:36;;;;;;;281.40;138.40;;;;;;;0.85;45.83;100048.04;106179;1274;107814;-68
2022/03/13 00:32:12;;;;;;;278.80;131.90;;;;;;;0.86;45.73;100049.95;106083;1274;97899;-66
2022/03/13 00:34:44;;;;;;;276.10;132.10;;;;;;;0.86;45.84;100053.61;106113;1274;97851;-72
2022/03/13 00:37:12;;;;;;;268.50;131.30;;;;;;;0.88;45.80;100049.05;106210;1274;111485;-71
2022/03/13 00:39:41;;;;;;;267.30;134.20;;;;;;;0.89;45.76;100047.96;106169;1274;95184;-72
2022/03/13 00:42:14;;;;;;;258.60;126.60;;;;;;;0.89;45.87;100039.59;106090;1274;107503;-70
2022/03/13 00:44:42;;;;;;;256.90;125.40;;;;;;;0.88;45.69;100034.19;106164;1274;98527;-67
2022/03/13 00:47:18;;;;;;;217.40;109.60;;;;;;;0.88;45.81;100035.06;106156;1274;97948;-69
2022/03/13 00:49:50;;;;;;;205.00;102.50;;;;;;;0.84;45.76;100033.04;106147;1274;111399;-68
2022/03/13 00:52:18;;;;;;;217.60;106.30;;;;;;;0.72;45.77;100029.23;106192;1273;97881;-69
2022/03/13 00:54:50;;;;;;;204.20;102.60;;;;;;;0.69;45.99;100028.94;106126;1274;107792;-69
2022/03/13 00:57:20;;;;;;;190.00;92.50;;;;;;;0.71;46.02;100025.05;106185;1274;95279;-69
2022/03/13 00:59:51;;;;;;;190.80;92.10;;;;;;;0.73;46.03;100024.30;106142;1274;97869;-68
2022/03/13 01:02:22;;;;;;;191.00;98.50;;;;;;;0.76;46.17;100022.70;106154;1274;112011;-68
2022/03/13 01:04:59;;;;;;;155.40;77.50;;;;;;;0.78;46.17;100025.62;106178;1274;97871;-68
2022/03/13 01:07:27;;;;;;;195.50;100.00;;;;;;;0.74;46.38;100023.95;106204;1273;108308;-70
2022/03/13 01:09:57;;;;;;;194.40;99.90;;;;;;;0.75;46.03;100023.94;106168;1274;97878;-69
2022/03/13 01:12:27;;;;;;;195.80;96.30;;;;;;;0.69;46.17;100021.23;106160;1274;97848;-69
2022/03/13 01:14:58;;;;;;;200.00;101.70;;;;;;;0.66;46.19;100021.98;106135;1277;110434;-68
2022/03/13 01:17:28;;;;;;;202.00;102.80;;;;;;;0.67;46.35;100020.58;106214;1272;97896;-69
2022/03/13 01:20:02;;;;;;;206.50;102.40;;;;;;;0.69;46.51;100020.90;106152;1274;108318;-69
2022/03/13 01:22:34;;;;;;;187.70;93.30;;;;;;;0.70;46.42;100022.11;106127;1274;95280;-67
2022/03/13 01:25:02;;;;;;;184.70;94.00;;;;;;;0.70;46.52;100016.70;106142;1274;95245;-69
2022/03/13 01:27:31;;;;;;;174.60;91.40;;;;;;;0.71;46.54;100019.30;106191;1274;111319;-69
2022/03/13 01:30:05;;;;;;;179.50;91.70;;;;;;;0.73;46.59;100016.98;106117;1274;96959;-69
2022/03/13 01:32:34;;;;;;;182.10;89.70;;;;;;;0.73;46.59;100017.35;106169;1273;107616;-69
2022/03/13 01:35:05;;;;;;;177.30;90.60;;;;;;;0.74;46.58;100016.63;106098;1274;95305;-70
2022/03/13 01:37:41;;;;;;;179.00;84.60;;;;;;;0.74;46.66;100012.96;106146;1273;95399;-67
2022/03/13 01:40:23;;;;;;;143.00;69.10;;;;;;;0.75;46.75;100012.42;106105;1274;112000;-68
2022/03/13 01:42:56;;;;;;;127.70;62.20;;;;;;;0.75;46.85;100006.30;106214;1274;98330;-71
2022/03/13 01:45:28;;;;;;;118.70;55.70;;;;;;;0.77;46.98;100003.31;106141;1273;107557;-72
2022/03/13 01:47:56;;;;;;;95.70;45.80;;;;;;;0.78;46.94;100004.00;106136;1274;97981;-69
2022/03/13 01:50:24;;;;;;;103.90;49.50;;;;;;;0.79;46.82;100001.89;106157;1274;97981;-70
2022/03/13 01:52:52;;;;;;;97.70;47.90;;;;;;;0.80;46.95;99997.33;106058;1274;111418;-70
2022/03/13 01:55:24;;;;;;;103.10;52.20;;;;;;;0.82;46.81;99993.45;106200;1274;97871;-69
2022/03/13 01:57:52;;;;;;;105.60;52.40;;;;;;;0.81;46.95;99996.07;106100;1274;107349;-71
2022/03/13 02:00:20;;;;;;;108.80;53.30;;;;;;;0.80;46.91;99995.77;106120;1273;97986;-70
2022/03/13 02:02:56;;;;;;;104.60;50.40;;;;;;;0.79;46.93;99991.40;106169;1273;98599;-71
2022/03/13 02:05:34;;;;;;;102.70;51.20;;;;;;;0.78;47.00;99995.96;106131;1274;111292;-70
2022/03/13 02:08:21;;;;;;;101.00;49.90;;;;;;;0.77;47.01;99994.06;106182;1274;97902;-71
2022/03/13 02:10:53;;;;;;;115.20;55.30;;;;;;;0.74;47.08;99998.11;106135;1273;108614;-70
2022/03/13 02:13:21;;;;;;;116.10;56.40;;;;;;;0.71;46.99;99994.85;106172;1273;98014;-70
2022/03/13 02:15:57;;;;;;;112.20;55.60;;;;;;;0.67;46.90;99993.88;106166;1274;95263;-71
2022/03/13 02:18:25;;;;;;;134.80;68.70;;;;;;;0.65;46.97;99993.39;106130;1274;111388;-69
2022/03/13 02:20:59;;;;;;;125.20;62.40;;;;;;;0.62;47.13;99990.83;106108;1274;97867;-70
2022/03/13 02:23:32;;;;;;;121.20;58.40;;;;;;;0.59;47.25;99988.09;106146;1274;108367;-68
2022/03/13 02:26:06;;;;;;;111.30;54.30;;;;;;;0.55;47.17;99988.48;106178;1274;97967;-68
2022/03/13 02:28:53;;;;;;;98.10;47.70;;;;;;;0.52;47.21;99984.53;106118;1274;97075;-68
2022/03/13 02:31:40;;;;;;;96.20;46.50;;;;;;;0.48;47.15;99983.02;106175;1273;111365;-68
2022/03/13 02:34:16;;;;;;;86.40;42.10;;;;;;;0.45;47.30;99981.48;106246;1273;95195;-69
2022/03/13 02:36:49;;;;;;;95.40;47.90;;;;;;;0.43;47.41;99980.80;106147;1274;108762;-69
2022/03/13 02:39:25;;;;;;;101.50;51.20;;;;;;;0.42;47.41;99973.88;106223;1273;97959;-68
2022/03/13 02:41:53;;;;;;;87.10;44.60;;;;;;;0.40;47.31;99975.81;106171;1274;97726;-68
2022/03/13 02:44:23;;;;;;;88.00;43.60;;;;;;;0.37;47.30;99978.14;106129;1274;111043;-68
2022/03/13 02:46:58;;;;;;;70.00;33.40;;;;;;;0.33;47.24;99983.45;106282;1274;97876;-70
2022/03/13 02:49:32;;;;;;;67.70;32.60;;;;;;;0.29;47.35;99981.39;106220;1273;108162;-68
2022/03/13 02:52:04;;;;;;;;;;;;;;;0.28;47.37;99985.79;106232;1273;95283;-68
2022/03/13 02:54:37;;;;;;;69.80;32.10;;;;;;;0.25;47.54;99988.96;106208;1273;97963;-69
2022/03/13 02:57:08;;;;;;;90.60;43.30;;;;;;;0.23;47.27;99984.64;106196;1273;111793;-68
2022/03/13 02:59:36;;;;;;;116.50;58.80;;;;;;;0.14;47.23;99984.44;106164;1274;97910;-68
2022/03/13 03:02:08;;;;;;;129.80;63.70;;;;;;;0.01;47.54;99978.17;106167;1274;108446;-67
2022/03/13 03:04:36;;;;;;;134.40;66.00;;;;;;;-0.15;47.96;99977.88;106179;1274;97883;-67
2022/03/13 03:07:06;;;;;;;133.40;64.40;;;;;;;-0.31;47.51;99982.61;106276;1274;97883;-69
2022/03/13 03:09:35;;;;;;;133.90;66.20;;;;;;;-0.35;47.66;99981.98;106215;1273;111393;-69
2022/03/13 03:12:09;;;;;;;126.60;62.50;;;;;;;-0.32;47.64;99984.38;106230;1274;95188;-69
2022/03/13 03:14:38;;;;;;;106.10;52.10;;;;;;;-0.26;47.66;99988.15;106205;1273;108691;-69
2022/03/13 03:17:06;;;;;;;112.90;54.10;;;;;;;-0.22;47.68;99983.38;106188;1273;97934;-69
2022/03/13 03:19:38;;;;;;;121.50;59.80;;;;;;;-0.25;47.70;99982.36;106285;1273;97880;-70
2022/03/13 03:22:17;;;;;;;123.00;62.30;;;;;;;-0.34;47.93;99984.39;106242;1273;111400;-70
2022/03/13 03:24:48;;;;;;;123.80;59.90;;;;;;;-0.36;47.83;99982.34;106162;1273;95223;-69
2022/03/13 03:27:23;;;;;;;99.10;48.00;;;;;;;-0.33;47.93;99981.26;106167;1273;105700;-69
2022/03/13 03:29:51;;;;;;;93.90;47.10;;;;;;;-0.30;48.15;99978.06;106207;1273;95211;-69
2022/03/13 03:32:21;;;;;;;93.50;43.50;;;;;;;-0.29;48.07;99979.11;106161;1274;97834;-70
2022/03/13 03:34:56;;;;;;;71.30;35.70;;;;;;;-0.27;48.18;99981.17;106190;1273;112689;-69
2022/03/13 03:37:27;;;;;;;70.40;31.80;;;;;;;-0.22;48.45;99982.70;106086;1273;97957;-69
2022/03/13 03:39:55;;;;;;;63.00;29.80;;;;;;;-0.20;48.35;99984.90;106178;1274;108268;-68
2022/03/13 03:42:29;;;;;;;99.90;48.20;;;;;;;-0.16;48.43;99980.14;106104;1274;96583;-69
2022/03/13 03:44:57;;;;;;;117.10;55.80;;;;;;;-0.13;48.50;99978.88;106214;1273;97893;-69
2022/03/13 03:47:25;;;;;;;122.10;59.20;;;;;;;-0.10;48.32;99979.38;106195;1274;111730;-71
2022/03/13 03:49:57;;;;;;;119.70;57.50;;;;;;;-0.06;48.41;99977.92;106178;1274;98054;-69
2022/03/13 03:52:29;;;;;;;106.90;53.30;;;;;;;-0.04;48.56;99981.73;106248;1273;107768;-71
2022/03/13 03:54:57;;;;;;;82.30;40.50;;;;;;;-0.02;48.60;99979.25;106179;1273;95229;-68
2022/03/13 03:57:27;;;;;;;89.80;42.40;;;;;;;0.01;48.73;99972.59;106204;1274;95182;-69
2022/03/13 03:59:55;;;;;;;88.80;42.30;;;;;;;0.04;48.86;99978.64;106199;1273;111968;-68
2022/03/13 04:02:25;;;;;;;85.30;41.60;;;;;;;0.07;48.78;99975.11;106215;1273;98001;-68
2022/03/13 04:05:03;;;;;;;90.50;46.50;;;;;;;0.09;48.86;99973.70;106141;1272;109533;-68
2022/03/13 04:07:38;;;;;;;91.90;41.50;;;;;;;0.11;48.99;99975.05;106183;1273;97944;-69
2022/03/13 04:10:16;;;;;;;83.00;40.70;;;;;;;0.13;48.85;99971.53;106157;1273;95285;-68
2022/03/13 04:12:46;;;;;;;77.80;38.50;;;;;;;0.14;48.77;99969.95;106164;1273;112581;-67
2022/03/13 04:15:17;;;;;;;69.30;32.60;;;;;;;0.15;48.87;99972.20;106154;1274;97878;-69
2022/03/13 04:17:48;;;;;;;66.10;31.10;;;;;;;0.16;48.96;99975.14;106180;1273;108226;-68
2022/03/13 04:20:21;;;;;;;73.80;33.10;;;;;;;0.17;48.91;99980.02;106157;1274;97987;-69
2022/03/13 04:22:52;;;;;;;59.30;28.40;;;;;;;0.18;49.05;99977.56;106148;1273;97957;-71
2022/03/13 04:25:22;;;;;;;64.70;30.70;;;;;;;0.18;48.96;99978.79;106140;1274;111318;-73
2022/03/13 04:27:58;;;;;;;66.10;31.10;;;;;;;0.19;49.06;99981.03;106208;1273;97931;-73
2022/03/13 04:30:30;;;;;;;62.50;29.60;;;;;;;0.21;49.04;99981.36;106158;1273;106590;-73
2022/03/13 04:33:01;;;;;;;59.50;28.40;;;;;;;0.23;49.23;99984.98;106180;1273;97887;-71
2022/03/13 04:35:30;;;;;;;58.50;28.80;;;;;;;0.24;49.08;99990.02;106168;1274;97895;-71
2022/03/13 04:37:58;;;;;;;60.70;29.30;;;;;;;0.25;48.98;99989.66;106165;1273;111198;-70
2022/03/13 04:40:29;;;;;;;56.50;26.80;;;;;;;0.25;49.02;99992.97;106157;1273;95221;-71
2022/03/13 04:42:57;;;;;;;58.70;27.40;;;;;;;0.24;49.02;99987.77;106142;1274;107681;-71
2022/03/13 04:45:27;;;;;;;54.80;26.20;;;;;;;0.25;49.20;99985.48;106089;1274;95276;-69
2022/03/13 04:47:59;;;;;;;60.70;27.40;;;;;;;0.27;49.29;99979.34;106209;1274;95263;-71
2022/03/13 04:50:29;;;;;;;78.00;38.80;;;;;;;0.28;49.13;99968.14;106182;1273;112626;-70
2022/03/13 04:52:57;;;;;;;70.80;33.10;;;;;;;0.27;49.15;99966.27;106164;1274;97742;-71
2022/03/13 04:55:24;;;;;;;52.00;25.90;;;;;;;0.25;49.34;99973.77;106178;1274;107775;-69
2022/03/13 04:57:53;;;;;;;52.70;22.40;;;;;;;0.25;49.26;99978.48;106133;1273;97775;-70
2022/03/13 05:00:28;;;;;;;50.70;22.30;;;;;;;0.25;49.36;99980.95;106082;1274;97963;-70
2022/03/13 05:03:00;;;;;;;47.30;22.70;;;;;;;0.27;49.22;99983.52;106189;1273;111188;-69
2022/03/13 05:05:28;;;;;;;49.90;23.90;;;;;;;0.29;49.30;99986.12;106173;1273;95378;-68
2022/03/13 05:07:58;;;;;;;52.20;23.70;;;;;;;0.28;49.55;99988.04;106173;1273;108367;-68
2022/03/13 05:10:36;;;;;;;50.60;25.00;;;;;;;0.27;49.39;99984.04;106151;1273;98355;-69
2022/03/13 05:13:09;;;;;;;50.20;22.40;;;;;;;0.30;49.51;99985.41;106197;1273;95298;-70
2022/03/13 05:15:42;;;;;;;50.40;25.10;;;;;;;0.33;49.52;99985.01;106119;1273;111626;-70
2022/03/13 05:18:14;;;;;;;51.40;23.40;;;;;;;0.37;49.47;99983.89;106156;1273;95234;-69
2022/03/13 05:20:46;;;;;;;49.70;22.50;;;;;;;0.40;49.50;99985.25;105928;1274;107981;-71
2022/03/13 05:23:14;;;;;;;47.50;22.40;;;;;;;0.44;49.68;99990.76;106077;1274;95373;-73
2022/03/13 05:25:46;;;;;;;52.20;24.80;;;;;;;0.47;49.62;99989.15;106156;1273;97820;-72
2022/03/13 05:28:14;;;;;;;48.90;23.10;;;;;;;0.51;49.67;99992.75;106135;1273;111537;-69
2022/03/13 05:30:44;;;;;;;55.30;24.50;;;;;;;0.54;49.50;99994.44;106186;1272;97893;-72
2022/03/13 05:33:16;;;;;;;56.50;25.30;;;;;;;0.57;49.63;99995.10;106155;1273;107735;-72
2022/03/13 05:35:46;;;;;;;53.10;24.90;;;;;;;0.61;49.73;99997.11;106135;1273;98685;-70
2022/03/13 05:38:18;;;;;;;57.10;26.40;;;;;;;0.65;49.80;99997.39;106115;1274;97938;-70
2022/03/13 05:40:53;;;;;;;83.70;40.40;;;;;;;0.66;49.50;99999.64;106191;1273;112047;-70
2022/03/13 05:43:22;;;;;;;97.40;44.30;;;;;;;0.57;49.81;100001.38;106214;1273;95273;-70
2022/03/13 05:45:54;;;;;;;129.00;67.30;;;;;;;0.44;50.06;100000.55;106180;1273;108241;-72
2022/03/13 05:48:25;;;;;;;144.10;68.70;;;;;;;0.35;50.17;100005.05;106116;1274;97872;-70
2022/03/13 05:50:57;;;;;;;162.30;83.10;;;;;;;0.27;50.59;100010.75;106107;1272;97921;-74
2022/03/13 05:53:27;;;;;;;154.40;78.20;;;;;;;0.16;51.19;100009.34;106071;1274;109946;-71
2022/03/13 05:55:58;;;;;;;155.70;74.60;;;;;;;0.05;51.12;100003.75;106173;1274;97896;-72
2022/03/13 05:58:26;;;;;;;140.50;69.90;;;;;;;0.02;51.03;100007.09;106207;1273;107809;-70
2022/03/13 06:01:07;;;;;;;153.10;75.80;;;;;;;0.04;51.09;100009.51;106191;1273;97963;-71
2022/03/13 06:03:35;;;;;;;148.40;74.50;;;;;;;0.06;51.51;100015.41;106172;1273;97870;-70
2022/03/13 06:06:08;;;;;;;148.20;72.40;;;;;;;0.03;52.00;100019.81;106132;1273;109578;-70
2022/03/13 06:08:40;;;;;;;137.60;69.10;;;;;;;-0.03;52.25;100021.48;106113;1273;95272;-70
2022/03/13 06:11:10;;;;;;;146.60;76.20;;;;;;;-0.05;52.70;100016.63;106095;1274;108535;-70
2022/03/13 06:13:38;;;;;;;145.90;72.30;;;;;;;-0.10;53.10;100021.91;106174;1273;95263;-71
2022/03/13 06:16:06;;;;;;;159.30;80.40;;;;;;;-0.14;52.82;100026.48;106230;1273;97932;-69
2022/03/13 06:18:40;;;;;;;147.40;74.40;;;;;;;-0.13;52.94;100028.92;106157;1273;112346;-69
2022/03/13 06:21:14;;;;;;;148.80;73.80;;;;;;;-0.12;52.59;100033.61;106202;1273;97943;-70
2022/03/13 06:23:45;;;;;;;146.80;75.30;;;;;;;-0.08;52.25;100032.88;106129;1274;108865;-72
2022/03/13 06:26:12;;;;;;;144.10;73.60;;;;;;;0.02;52.28;100039.36;106132;1273;95960;-69
2022/03/13 06:28:40;;;;;;;146.90;74.70;;;;;;;0.09;52.22;100042.05;106164;1274;97879;-70
2022/03/13 06:31:12;;;;;;;137.70;71.40;;;;;;;0.17;52.24;100048.23;106127;1274;112033;-69
2022/03/13 06:33:43;;;;;;;137.50;70.30;;;;;;;0.24;52.21;100047.08;106172;1274;97820;-71
2022/03/13 06:36:13;;;;;;;162.60;78.10;;;;;;;0.31;52.23;100046.63;106133;1273;109276;-71
2022/03/13 06:38:44;;;;;;;161.60;82.80;;;;;;;0.36;52.27;100044.11;106138;1274;97881;-71
2022/03/13 06:41:17;;;;;;;152.20;82.30;;;;;;;0.43;52.35;100042.95;106183;1273;97854;-70
2022/03/13 06:43:48;;;;;;;152.20;80.60;;;;;;;0.52;52.46;100041.24;106178;1273;111380;-69
2022/03/13 06:46:16;;;;;;;149.40;77.50;;;;;;;0.60;52.26;100043.05;106158;1273;95298;-71
2022/03/13 06:48:44;;;;;;;158.60;79.50;;;;;;;0.69;52.46;100047.61;106074;1274;108397;-70
2022/03/13 06:51:15;;;;;;;147.10;76.90;;;;;;;0.78;52.54;100049.02;106120;1272;95250;-68
2022/03/13 06:53:46;;;;;;;142.50;75.80;;;;;;;0.90;52.52;100046.56;106169;1274;98065;-68
2022/03/13 06:56:18;;;;;;;152.10;75.80;;;;;;;0.99;52.48;100044.13;106184;1273;112951;-70
2022/03/13 06:58:46;;;;;;;153.30;75.30;;;;;;;1.09;52.52;100042.20;106055;1274;97904;-71
2022/03/13 07:01:15;;;;;;;142.10;71.10;;;;;;;1.19;52.53;100049.21;106041;1274;107728;-69
2022/03/13 07:03:43;;;;;;;140.90;74.30;;;;;;;1.28;52.63;100050.42;106108;1273;95324;-70
2022/03/13 07:06:15;;;;;;;140.00;70.20;;;;;;;1.38;52.72;100052.52;106117;1273;95261;-70
2022/03/13 07:08:45;;;;;;;116.60;61.10;;;;;;;1.49;52.78;100050.54;106056;1274;112327;-73
2022/03/13 07:11:20;;;;;;;91.30;47.20;;;;;;;1.62;52.69;100052.75;106045;1274;97859;-70
2022/03/13 07:13:48;;;;;;;100.90;47.90;;;;;;;1.75;52.73;100051.80;106149;1273;107748;-70
2022/03/13 07:16:20;;;;;;;77.80;37.30;;;;;;;1.90;52.61;100051.30;106079;1274;95895;-71
2022/03/13 07:18:48;;;;;;;83.90;40.90;;;;;;;2.03;52.58;100045.58;106067;1273;95236;-70
2022/03/13 07:21:16;;;;;;;86.70;41.50;;;;;;;2.17;52.58;100043.02;106164;1273;111478;-72
2022/03/13 07:23:44;;;;;;;74.50;35.70;;;;;;;2.32;52.61;100044.07;106046;1274;98800;-70
2022/03/13 07:26:13;;;;;;;82.60;39.20;;;;;;;2.44;52.60;100045.20;106080;1274;107802;-69
2022/03/13 07:28:44;;;;;;;84.10;38.80;;;;;;;2.57;52.47;100050.52;106183;1273;97924;-69
2022/03/13 07:31:12;;;;;;;81.40;37.90;;;;;;;2.75;52.64;100052.17;106161;1274;97926;-69
2022/03/13 07:33:40;;;;;;;78.80;36.80;;;;;;;2.96;52.43;100053.23;106183;1273;110348;-68
2022/03/13 07:36:10;;;;;;;74.00;34.70;;;;;;;3.18;52.41;100053.70;106099;1274;95323;-67
2022/03/13 07:38:41;;;;;;;68.00;32.30;;;;;;;3.40;52.75;100051.91;106172;1273;108381;-71
2022/03/13 07:41:08;;;;;;;66.60;33.10;;;;;;;3.52;52.46;100053.70;106053;1274;98606;-68
2022/03/13 07:43:37;;;;;;;67.80;32.30;;;;;;;3.51;52.41;100050.72;106174;1273;96432;-71
2022/03/13 07:46:07;;;;;;;64.70;34.10;;;;;;;3.46;52.05;100054.02;106072;1274;111963;-71
2022/03/13 07:48:39;;;;;;;59.10;29.80;;;;;;;3.42;52.29;100059.05;106050;1274;98598;-70
2022/03/13 07:51:09;;;;;;;69.70;33.90;;;;;;;3.39;52.39;100062.63;106109;1273;108332;-70
2022/03/13 07:53:41;;;;;;;65.30;33.00;;;;;;;3.38;51.92;100064.05;105985;1274;97954;-70
2022/03/13 07:56:13;;;;;;;67.50;32.00;;;;;;;3.37;51.67;100063.20;106067;1274;97884;-69
2022/03/13 07:58:41;;;;;;;61.80;31.70;;;;;;;3.39;52.09;100060.36;106046;1273;113088;-70
2022/03/13 08:01:13;;;;;;;66.60;33.10;;;;;;;3.43;52.20;100059.36;106112;1273;95240;-70
2022/03/13 08:03:44;;;;;;;59.20;28.30;;;;;;;3.45;52.15;100061.95;106031;1274;107778;-69
2022/03/13 08:06:14;;;;;;;54.00;26.00;;;;;;;3.47;52.21;100062.74;106068;1273;97999;-69
2022/03/13 08:08:42;;;;;;;52.80;25.80;;;;;;;3.50;52.01;100065.46;106090;1273;97857;-70
2022/03/13 08:11:10;;;;;;;52.20;24.40;;;;;;;3.52;52.00;100065.42;106002;1274;111226;-71
2022/03/13 08:13:38;;;;;;;51.20;25.10;;;;;;;3.55;51.77;100066.38;106138;1273;97942;-70
2022/03/13 08:16:06;;;;;;;55.60;28.00;;;;;;;3.60;51.94;100067.16;106121;1273;107735;-70
2022/03/13 08:18:35;;;;;;;53.60;26.30;;;;;;;3.63;51.68;100067.42;106101;1273;95293;-72
2022/03/13 08:21:04;;;;;;;50.70;25.60;;;;;;;3.66;52.02;100072.58;106127;1273;95530;-70
2022/03/13 08:23:32;;;;;;;48.90;24.80;;;;;;;3.72;52.06;100072.06;106110;1273;111240;-69
2022/03/13 08:25:59;;;;;;;54.60;25.90;;;;;;;3.76;51.95;100074.96;106090;1270;97974;-67
2022/03/13 08:28:27;;;;;;;44.40;22.60;;;;;;;3.79;51.70;100069.59;106095;1273;107573;-69
2022/03/13 08:31:00;;;;;;;46.20;23.60;;;;;;;3.85;52.07;100068.38;106146;1273;97861;-70
2022/03/13 08:33:32;;;;;;;50.30;23.50;;;;;;;3.92;51.55;100066.60;106211;1271;97976;-69
2022/03/13 08:36:04;;;;;;;46.90;22.80;;;;;;;4.00;51.69;100068.11;106153;1273;110554;-71
2022/03/13 08:38:35;;;;;;;42.90;22.60;;;;;;;4.09;51.59;100066.10;106020;1274;98179;-67
2022/03/13 08:41:03;;;;;;;43.20;20.60;;;;;;;4.19;51.68;100064.39;106105;1273;107360;-69
2022/03/13 08:43:36;;;;;;;44.20;21.60;;;;;;;4.31;51.78;100061.73;106060;1273;95878;-65
2022/03/13 08:46:06;;;;;;;44.60;22.80;;;;;;;4.46;51.57;100056.88;105967;1274;97835;-67
2022/03/13 08:48:42;;;;;;;46.10;22.60;;;;;;;5.11;51.60;100056.33;106054;1274;112076;-68
2022/03/13 08:51:13;;;;;;;50.90;25.70;;;;;;;6.22;51.73;100050.58;106123;1273;97747;-69
2022/03/13 08:53:45;;;;;;;44.30;23.70;;;;;;;7.30;52.21;100047.27;106176;1273;107881;-70
2022/03/13 08:56:14;;;;;;;50.00;24.30;;;;;;;8.23;51.83;100046.45;106165;1273;95182;-68
2022/03/13 08:58:47;;;;;;;43.90;21.90;;;;;;;8.94;51.88;100043.61;106087;1274;97857;-69
2022/03/13 09:01:17;;;;;;;45.30;24.00;;;;;;;9.43;51.53;100037.54;106028;1275;111445;-68
2022/03/13 09:03:51;;;;;;;43.20;22.90;;;;;;;9.80;51.91;100032.61;106193;1273;95295;-67
2022/03/13 09:06:27;;;;;;;46.30;25.40;;;;;;;10.16;51.83;100034.69;106116;1274;108550;-67
2022/03/13 09:08:57;;;;;;;44.70;24.60;;;;;;;10.44;52.02;100035.52;106125;1274;97913;-68
2022/03/13 09:11:25;;;;;;;45.20;24.70;;;;;;;10.71;52.07;100035.40;106114;1274;97963;-69
2022/03/13 09:13:53;;;;;;;44.50;25.30;;;;;;;11.01;52.00;100035.45;106057;1274;111508;-70
2022/03/13 09:16:24;;;;;;;44.00;24.90;;;;;;;11.18;51.65;100038.38;106048;1274;95363;-69
2022/03/13 09:18:53;;;;;;;41.50;23.10;;;;;;;11.30;51.76;100038.64;106092;1273;108959;-70
2022/03/13 09:21:22;;;;;;;41.90;23.20;;;;;;;11.43;51.49;100037.56;106092;1274;96302;-68
2022/03/13 09:23:53;;;;;;;43.90;24.60;;;;;;;11.64;51.14;100041.05;106164;1273;98049;-68
2022/03/13 09:26:21;;;;;;;43.00;23.20;;;;;;;11.82;51.05;100038.55;106142;1273;111216;-69
2022/03/13 09:28:49;;;;;;;41.70;23.20;;;;;;;12.03;51.41;100042.11;106005;1273;96433;-69
2022/03/13 09:31:17;;;;;;;38.80;22.10;;;;;;;12.23;51.07;100041.54;106055;1273;106892;-70
2022/03/13 09:33:45;;;;;;;40.60;22.40;;;;;;;12.46;51.16;100039.55;106118;1273;97870;-71
2022/03/13 09:36:13;;;;;;;42.00;22.70;;;;;;;12.61;51.17;100041.59;106102;1273;97984;-71
2022/03/13 09:38:41;;;;;;;39.20;21.80;;;;;;;12.78;50.86;100044.77;106110;1273;110983;-71
2022/03/13 09:41:09;;;;;;;38.40;22.00;;;;;;;12.96;50.76;100044.43;106023;1273;96096;-69
2022/03/13 09:43:36;;;;;;;61.90;32.60;;;;;;;13.18;50.78;100039.77;106137;1273;107622;-70
2022/03/13 09:46:05;;;;;;;38.40;21.60;;;;;;;13.36;50.05;100037.14;106033;1273;98827;-70
2022/03/13 09:48:40;;;;;;;37.30;21.40;;;;;;;13.46;50.12;100032.39;105966;1273;97995;-70
2022/03/13 09:51:10;;;;;;;35.00;20.00;;;;;;;13.71;50.10;100028.48;105849;1274;111415;-72
2022/03/13 09:53:39;;;;;;;40.10;22.50;;;;;;;14.05;50.09;100029.29;106105;1273;95262;-72
2022/03/13 09:56:09;;;;;;;38.60;22.10;;;;;;;14.34;50.06;100028.71;106026;1273;107915;-70
2022/03/13 09:58:39;;;;;;;37.70;22.10;;;;;;;14.47;49.76;100028.97;106129;1273;96408;-70
2022/03/13 10:01:12;;;;;;;35.10;19.80;;;;;;;14.51;49.60;100021.56;106077;1273;97895;-70
2022/03/13 10:03:40;;;;;;;32.30;16.80;;;;;;;14.44;49.53;100022.02;106076;1273;112080;-69
2022/03/13 10:06:09;;;;;;;31.90;17.80;;;;;;;14.47;49.38;100023.23;106011;1273;97944;-72
2022/03/13 10:08:38;;;;;;;33.80;17.10;;;;;;;14.52;49.11;100019.83;106152;1274;107705;-70
2022/03/13 10:11:07;;;;;;;31.10;17.00;;;;;;;14.48;48.30;100017.64;106068;1273;97917;-69
2022/03/13 10:13:46;;;;;;;31.80;17.60;;;;;;;14.42;49.05;100017.35;106079;1273;97883;-69
2022/03/13 10:16:20;;;;;;;33.00;17.00;;;;;;;14.39;48.59;100013.66;106097;1273;111121;-69
2022/03/13 10:18:48;;;;;;;34.40;18.60;;;;;;;14.38;48.58;100018.00;106112;1273;97689;-70
2022/03/13 10:21:17;;;;;;;36.00;20.40;;;;;;;14.33;48.28;100012.34;106049;1273;108081;-69
2022/03/13 10:23:48;;;;;;;32.90;17.10;;;;;;;14.28;48.22;100015.67;106177;1273;97974;-71
2022/03/13 10:26:17;;;;;;;34.70;19.20;;;;;;;14.24;47.75;100020.14;106061;1274;97993;-70
2022/03/13 10:28:45;;;;;;;35.00;17.70;;;;;;;14.19;47.72;100020.49;106173;1273;112563;-70
2022/03/13 10:31:18;;;;;;;34.80;18.00;;;;;;;14.11;47.50;100016.90;106122;1273;97863;-69
2022/03/13 10:33:57;;;;;;;35.40;19.90;;;;;;;14.04;47.43;100015.30;105992;1274;107752;-72
2022/03/13 10:36:35;;;;;;;35.20;20.80;;;;;;;13.86;46.00;100018.89;105994;1274;98453;-69
2022/03/13 10:39:12;;;;;;;37.70;21.00;;;;;;;13.80;46.83;100015.02;105976;1273;96627;-70
2022/03/13 10:41:47;;;;;;;39.90;22.40;;;;;;;13.70;46.55;100014.16;105692;1273;112205;-69
2022/03/13 10:44:22;;;;;;;34.60;19.90;;;;;;;13.69;46.77;100014.72;105849;1273;95193;-71
2022/03/13 10:46:58;;;;;;;41.00;22.30;;;;;;;13.70;45.89;100019.27;106001;1274;106711;-71
2022/03/13 10:49:42;;;;;;;37.90;21.90;;;;;;;13.80;46.72;100023.23;106043;1274;97890;-69
2022/03/13 10:52:25;;;;;;;39.40;23.90;;;;;;;13.86;46.67;100019.59;106040;1273;97886;-70
2022/03/13 10:54:54;;;;;;;41.30;23.00;;;;;;;13.77;46.47;100019.74;106073;1273;111995;-67
2022/03/13 10:57:23;;;;;;;36.10;19.60;;;;;;;13.53;45.94;100021.03;105922;1273;96912;-69
2022/03/13 11:00:19;;;;;;;38.80;21.20;;;;;;;13.26;45.45;100018.95;105885;1273;106735;-70
2022/03/13 11:02:49;;;;;;;39.20;20.50;;;;;;;13.12;45.91;100020.07;105849;1274;96570;-69
2022/03/13 11:05:18;;;;;;;39.10;21.40;;;;;;;13.06;45.80;100020.80;106068;1273;97889;-69
2022/03/13 11:07:52;;;;;;;34.60;20.20;;;;;;;12.95;45.47;100022.81;105846;1274;111024;-70
2022/03/13 11:10:21;;;;;;;38.40;21.40;;;;;;;12.82;45.07;100020.10;106015;1273;97877;-71
2022/03/13 11:12:50;;;;;;;35.50;19.80;;;;;;;12.73;45.32;100021.75;105976;1273;107343;-69
2022/03/13 11:15:18;;;;;;;34.80;19.60;;;;;;;12.69;45.25;100019.33;106059;1273;97961;-72
2022/03/13 11:17:48;;;;;;;34.40;19.20;;;;;;;12.64;44.90;100025.58;106037;1273;97753;-72
2022/03/13 11:20:18;;;;;;;36.10;20.00;;;;;;;12.53;44.82;100025.55;106024;1273;111135;-69